Time;durP1;ratioP1;P1;durP2;ratioP2;P2;SDS_P1;SDS_P2;PMS_P1;PMS_P2;Temp;Humidity;BMP_temperature;BMP_pressure;BME280_temperature;BME280_humidity;BME280_pressure;Samples;Min_cycle;Max_cycle;Signal;HPM_P1;HPM_P2
2022/03/15 00:01:05;;;;;;;21.15;11.18;;;;;;;1.31;52.19;102092.22;1766085;80;21054;-54
2022/03/15 00:03:31;;;;;;;20.37;11.60;;;;;;;1.28;52.26;102090.55;1730814;80;21842;-54
2022/03/15 00:05:59;;;;;;;17.35;11.08;;;;;;;1.29;52.24;102093.56;1758974;79;21063;-54
2022/03/15 00:08:26;;;;;;;17.27;11.20;;;;;;;1.25;52.31;102094.47;1763453;79;21156;-54
2022/03/15 00:10:57;;;;;;;22.70;11.95;;;;;;;1.27;52.35;102092.70;1766901;80;21073;-54
2022/03/15 00:13:28;;;;;;;20.43;11.40;;;;;;;1.27;52.37;102090.11;1763125;79;21019;-54
2022/03/15 00:15:53;;;;;;;21.95;11.65;;;;;;;1.30;52.40;102090.52;1756963;79;21658;-56
2022/03/15 00:18:21;;;;;;;17.87;10.98;;;;;;;1.29;52.53;102081.02;1765488;79;21078;-55
2022/03/15 00:20:48;;;;;;;17.32;11.40;;;;;;;1.30;52.59;102082.74;1767396;79;21532;-55
2022/03/15 00:23:15;;;;;;;22.58;12.68;;;;;;;1.26;52.76;102078.46;1776210;79;21041;-55
2022/03/15 00:25:42;;;;;;;16.20;10.55;;;;;;;1.24;52.88;102079.78;1772005;79;21090;-55
2022/03/15 00:28:09;;;;;;;23.47;11.20;;;;;;;1.23;52.96;102077.23;1772661;80;21078;-56
2022/03/15 00:30:41;;;;;;;19.90;12.05;;;;;;;1.23;53.04;102075.48;1758765;77;21075;-54
2022/03/15 00:33:09;;;;;;;17.32;10.88;;;;;;;1.23;53.10;102070.30;1753854;80;21162;-53
2022/03/15 00:35:35;;;;;;;17.65;12.68;;;;;;;1.21;53.10;102075.08;1751495;80;21102;-54
2022/03/15 00:38:03;;;;;;;17.90;10.45;;;;;;;1.13;53.19;102068.72;1752712;80;21615;-55
2022/03/15 00:40:30;;;;;;;19.35;11.70;;;;;;;1.11;53.25;102066.14;1749640;80;21047;-53
2022/03/15 00:42:58;;;;;;;20.50;11.88;;;;;;;1.14;53.23;102065.67;1752138;80;21627;-53
2022/03/15 00:45:28;;;;;;;18.30;11.73;;;;;;;1.12;53.22;102064.40;1757757;80;21151;-54
2022/03/15 00:47:56;;;;;;;21.45;12.43;;;;;;;1.15;53.18;102065.66;1754150;80;21051;-53
2022/03/15 00:50:23;;;;;;;20.50;12.78;;;;;;;1.14;53.19;102063.09;1757009;80;21051;-53
2022/03/15 00:52:50;;;;;;;19.35;12.43;;;;;;;1.17;53.09;102062.59;1754587;80;21565;-54
2022/03/15 00:55:17;;;;;;;23.98;12.78;;;;;;;1.16;53.12;102058.31;1760341;80;21046;-54
2022/03/15 00:57:44;;;;;;;21.17;11.90;;;;;;;1.16;53.12;102062.20;1760198;80;21147;-54
2022/03/15 01:00:14;;;;;;;19.27;11.78;;;;;;;1.13;53.19;102064.83;1757686;80;21043;-54
2022/03/15 01:02:40;;;;;;;21.60;12.95;;;;;;;1.13;53.23;102060.94;1753966;80;21023;-54
2022/03/15 01:05:08;;;;;;;21.25;12.40;;;;;;;1.06;53.36;102067.06;1757508;80;20996;-54
2022/03/15 01:07:37;;;;;;;19.85;11.90;;;;;;;1.03;53.43;102065.39;1751553;80;21098;-54
2022/03/15 01:10:06;;;;;;;22.65;13.18;;;;;;;0.98;53.55;102059.86;1754419;80;21229;-55
2022/03/15 01:12:33;;;;;;;22.98;12.88;;;;;;;0.98;53.58;102053.38;1758635;80;21049;-55
2022/03/15 01:15:01;;;;;;;23.40;13.03;;;;;;;0.94;53.67;102064.20;1710037;82;22223;-55
2022/03/15 01:17:28;;;;;;;18.95;12.88;;;;;;;0.92;53.71;102061.65;1756911;80;21106;-54
2022/03/15 01:19:55;;;;;;;22.60;12.50;;;;;;;0.88;53.85;102054.78;1755754;80;21761;-54
2022/03/15 01:22:23;;;;;;;20.60;12.15;;;;;;;0.90;53.84;102049.12;1762905;80;21255;-54
2022/03/15 01:24:49;;;;;;;24.12;13.15;;;;;;;0.85;54.03;102047.03;1761061;80;21089;-54
2022/03/15 01:27:16;;;;;;;25.68;13.43;;;;;;;0.83;54.12;102047.50;1755928;80;21039;-54
2022/03/15 01:29:44;;;;;;;20.02;12.45;;;;;;;0.82;54.29;102041.88;1753503;80;21058;-54
2022/03/15 01:32:10;;;;;;;18.92;12.78;;;;;;;0.80;54.26;102045.39;1755332;80;21430;-54
2022/03/15 01:34:38;;;;;;;20.60;12.33;;;;;;;0.78;54.23;102051.03;1747827;80;21147;-54
2022/03/15 01:37:05;;;;;;;21.12;12.63;;;;;;;0.77;54.14;102045.42;1752677;80;21047;-55
2022/03/15 01:39:33;;;;;;;27.55;13.35;;;;;;;0.76;54.09;102042.40;1719103;82;21090;-54
2022/03/15 01:42:00;;;;;;;19.57;12.85;;;;;;;0.74;54.05;102047.18;1755690;80;21691;-55
2022/03/15 01:44:33;;;;;;;18.42;12.33;;;;;;;0.72;54.09;102048.06;1746828;80;21042;-54
2022/03/15 01:46:57;;;;;;;17.87;11.43;;;;;;;0.69;54.12;102043.80;1758570;80;21136;-54
2022/03/15 01:49:24;;;;;;;21.62;12.58;;;;;;;0.65;54.19;102051.16;1746154;80;22055;-55
2022/03/15 01:51:52;;;;;;;24.95;14.65;;;;;;;0.64;54.28;102051.18;1749762;80;21077;-55
2022/03/15 01:54:22;;;;;;;20.25;12.63;;;;;;;0.63;54.30;102054.67;1761292;80;21086;-54
2022/03/15 01:56:49;;;;;;;19.82;11.93;;;;;;;0.61;54.42;102051.25;1749706;80;21014;-55
2022/03/15 01:59:16;;;;;;;22.55;12.40;;;;;;;0.59;54.47;102053.84;1749745;80;21136;-55
2022/03/15 02:01:43;;;;;;;20.50;12.18;;;;;;;0.55;54.56;102053.45;1749649;80;21552;-54
2022/03/15 02:04:11;;;;;;;18.85;11.35;;;;;;;0.53;54.69;102052.17;1755956;80;21111;-54
2022/03/15 02:06:44;;;;;;;21.15;11.93;;;;;;;0.53;54.74;102050.87;1749964;80;22244;-54
2022/03/15 02:09:13;;;;;;;19.98;11.78;;;;;;;0.51;54.83;102056.52;1751571;80;21067;-54
2022/03/15 02:11:45;;;;;;;18.62;11.95;;;;;;;0.48;54.85;102051.36;1746873;80;21583;-55
2022/03/15 02:14:13;;;;;;;16.62;10.15;;;;;;;0.46;54.91;102051.83;1764546;80;21003;-54
2022/03/15 02:16:40;;;;;;;19.77;11.73;;;;;;;0.45;54.95;102050.09;1752006;80;21082;-55
2022/03/15 02:19:06;;;;;;;21.70;12.20;;;;;;;0.45;54.93;102050.09;1749925;80;21556;-54
2022/03/15 02:21:37;;;;;;;19.42;12.00;;;;;;;0.45;54.94;102047.95;1751640;80;21106;-54
2022/03/15 02:24:05;;;;;;;20.32;11.97;;;;;;;0.47;54.88;102041.02;1755437;80;21258;-53
2022/03/15 02:26:33;;;;;;;18.23;11.38;;;;;;;0.44;55.02;102039.75;1755428;80;21066;-54
2022/03/15 02:29:00;;;;;;;17.65;11.08;;;;;;;0.41;55.07;102043.25;1754020;80;21055;-55
2022/03/15 02:31:26;;;;;;;19.30;11.40;;;;;;;0.38;55.21;102035.95;1743169;80;21099;-54
2022/03/15 02:33:53;;;;;;;20.88;11.43;;;;;;;0.35;55.21;102038.12;1739415;81;21185;-54
2022/03/15 02:36:20;;;;;;;19.02;11.05;;;;;;;0.34;55.25;102035.14;1735676;81;21104;-54
2022/03/15 02:38:47;;;;;;;17.20;10.85;;;;;;;0.35;55.29;102039.42;1741654;81;21056;-54
2022/03/15 02:41:14;;;;;;;17.73;10.78;;;;;;;0.36;55.29;102039.86;1737245;81;21056;-55
2022/03/15 02:43:43;;;;;;;16.20;10.20;;;;;;;0.36;55.35;102034.67;1741598;81;21784;-54
2022/03/15 02:46:11;;;;;;;18.10;10.45;;;;;;;0.36;55.36;102038.56;1736717;81;21517;-55
2022/03/15 02:48:37;;;;;;;24.37;10.38;;;;;;;0.34;55.36;102040.31;1736031;81;21131;-54
2022/03/15 02:51:08;;;;;;;19.27;11.65;;;;;;;0.31;55.38;102040.34;1737796;81;21036;-55
2022/03/15 02:53:32;;;;;;;15.55;10.58;;;;;;;0.32;55.40;102039.04;1741695;81;21091;-54
2022/03/15 02:55:59;;;;;;;15.78;10.23;;;;;;;0.32;55.49;102034.27;1747113;81;21020;-55
2022/03/15 02:58:26;;;;;;;17.15;10.68;;;;;;;0.31;55.55;102029.98;1744068;81;21044;-56
2022/03/15 03:00:53;;;;;;;18.67;10.43;;;;;;;0.29;55.59;102027.41;1736023;81;21161;-56
2022/03/15 03:03:19;;;;;;;19.00;10.95;;;;;;;0.29;55.59;102022.68;1685642;84;21080;-55
2022/03/15 03:05:46;;;;;;;19.90;10.15;;;;;;;0.30;55.68;102023.08;1740364;81;21087;-55
2022/03/15 03:08:12;;;;;;;16.82;9.98;;;;;;;0.27;55.70;102019.23;1744444;81;21075;-55
2022/03/15 03:10:39;;;;;;;19.52;9.33;;;;;;;0.29;55.67;102020.94;1737778;81;21011;-55
2022/03/15 03:13:08;;;;;;;17.73;10.75;;;;;;;0.30;55.65;102023.08;1692785;84;21164;-56
2022/03/15 03:15:36;;;;;;;14.90;9.85;;;;;;;0.26;55.82;102022.27;1740651;81;21095;-55
2022/03/15 03:18:04;;;;;;;15.78;9.23;;;;;;;0.23;55.86;102024.88;1737959;81;21353;-55
2022/03/15 03:20:32;;;;;;;21.50;10.10;;;;;;;0.22;55.92;102032.66;1739173;81;21040;-55
2022/03/15 03:22:59;;;;;;;15.10;9.13;;;;;;;0.17;56.08;102027.11;1742422;81;21052;-56
2022/03/15 03:25:28;;;;;;;13.83;8.98;;;;;;;0.16;56.09;102025.38;1743534;81;21260;-56
2022/03/15 03:27:59;;;;;;;16.77;9.83;;;;;;;0.21;55.94;102029.67;1741447;81;21528;-55
2022/03/15 03:30:29;;;;;;;16.85;10.00;;;;;;;0.22;56.02;102022.30;1738110;80;21054;-55
2022/03/15 03:32:56;;;;;;;15.60;9.30;;;;;;;0.26;55.99;102030.47;1756493;80;21103;-55
2022/03/15 03:35:24;;;;;;;15.55;9.35;;;;;;;0.26;56.00;102027.89;1748024;80;21075;-55
2022/03/15 03:37:52;;;;;;;15.88;9.30;;;;;;;0.30;55.93;102033.02;1757337;80;21148;-55
2022/03/15 03:40:19;;;;;;;19.23;9.50;;;;;;;0.35;55.82;102030.36;1757326;80;21015;-56
2022/03/15 03:42:46;;;;;;;15.68;9.60;;;;;;;0.33;55.83;102027.78;1749998;80;21134;-55
2022/03/15 03:45:12;;;;;;;20.37;9.58;;;;;;;0.31;55.81;102034.72;1754077;80;21090;-55
2022/03/15 03:47:39;;;;;;;19.55;9.98;;;;;;;0.29;55.96;102031.75;1752718;80;21524;-55
2022/03/15 03:50:08;;;;;;;16.27;10.15;;;;;;;0.27;55.97;102026.99;1756134;80;21075;-55
2022/03/15 03:52:35;;;;;;;19.67;10.82;;;;;;;0.27;56.01;102025.70;1742740;80;21004;-55
2022/03/15 03:55:03;;;;;;;15.28;9.58;;;;;;;0.26;56.08;102026.14;1755630;80;21537;-55
2022/03/15 03:57:30;;;;;;;14.07;8.15;;;;;;;0.25;56.06;102024.42;1754356;80;21074;-55
2022/03/15 03:59:57;;;;;;;15.90;9.75;;;;;;;0.22;56.11;102024.48;1762987;80;21023;-55
2022/03/15 04:02:26;;;;;;;13.22;8.80;;;;;;;0.20;56.19;102021.02;1722160;82;21148;-55
2022/03/15 04:04:54;;;;;;;17.10;9.35;;;;;;;0.19;56.20;102018.03;1753813;80;21043;-55
2022/03/15 04:07:21;;;;;;;14.87;8.90;;;;;;;0.21;56.19;102021.45;1750687;80;21050;-55
2022/03/15 04:09:47;;;;;;;13.38;9.35;;;;;;;0.21;56.26;102019.31;1751905;80;21039;-55
2022/03/15 04:12:15;;;;;;;16.02;8.38;;;;;;;0.21;56.27;102020.61;1755287;80;21544;-55
2022/03/15 04:14:42;;;;;;;16.93;9.60;;;;;;;0.20;56.29;102024.05;1690422;84;21206;-55
2022/03/15 04:17:09;;;;;;;14.00;7.92;;;;;;;0.18;56.34;102024.95;1748277;80;21035;-55
2022/03/15 04:19:35;;;;;;;17.30;10.23;;;;;;;0.15;56.40;102021.09;1760286;80;21552;-55
2022/03/15 04:22:03;;;;;;;14.28;9.48;;;;;;;0.12;56.49;102015.95;1756149;80;20999;-55
2022/03/15 04:24:32;;;;;;;17.98;8.70;;;;;;;0.13;56.53;102016.80;1751223;80;21521;-55
2022/03/15 04:26:59;;;;;;;17.00;8.88;;;;;;;0.15;56.52;102015.92;1759211;80;21262;-53
2022/03/15 04:29:28;;;;;;;17.75;9.98;;;;;;;0.16;56.46;102016.31;1763371;80;20997;-53
2022/03/15 04:31:54;;;;;;;13.20;8.23;;;;;;;0.16;56.48;102012.44;1767722;80;21058;-54
2022/03/15 04:34:24;;;;;;;20.75;9.83;;;;;;;0.20;56.43;102016.30;1758452;80;22225;-54
2022/03/15 04:36:51;;;;;;;19.82;9.68;;;;;;;0.21;56.45;102017.57;1746483;80;21030;-54
2022/03/15 04:39:17;;;;;;;14.95;8.35;;;;;;;0.22;56.40;102017.13;1751176;80;21130;-54
2022/03/15 04:41:45;;;;;;;16.97;8.53;;;;;;;0.26;56.38;102017.08;1757440;80;21094;-55
2022/03/15 04:44:13;;;;;;;13.28;8.55;;;;;;;0.28;56.36;102016.63;1757146;80;21031;-54
2022/03/15 04:46:40;;;;;;;14.68;8.40;;;;;;;0.33;56.27;102020.47;1754267;80;21532;-54
2022/03/15 04:49:07;;;;;;;13.22;8.63;;;;;;;0.33;56.24;102017.88;1753334;80;21079;-54
2022/03/15 04:51:35;;;;;;;18.40;9.10;;;;;;;0.32;56.28;102017.44;1689893;83;21155;-54
2022/03/15 04:54:02;;;;;;;17.12;9.45;;;;;;;0.33;56.40;102020.47;1760054;80;21044;-54
2022/03/15 04:56:29;;;;;;;13.50;8.05;;;;;;;0.36;56.38;102020.44;1757596;80;21118;-54
2022/03/15 04:58:56;;;;;;;14.28;9.35;;;;;;;0.45;56.23;102024.20;1692862;82;21154;-54
2022/03/15 05:01:23;;;;;;;16.15;8.83;;;;;;;0.49;56.15;102017.28;1755518;80;21475;-55
2022/03/15 05:03:51;;;;;;;16.27;8.50;;;;;;;0.56;56.03;102017.61;1764220;80;21043;-54
2022/03/15 05:06:18;;;;;;;14.33;8.35;;;;;;;0.63;55.85;102014.52;1750941;80;21114;-55
2022/03/15 05:12:50;;;;;;;16.57;8.83;;;;;;;0.65;55.79;102012.75;1767432;80;21585;-54
2022/03/15 05:15:17;;;;;;;14.83;9.33;;;;;;;0.68;55.75;102017.45;1761514;80;21254;-55
2022/03/15 05:17:44;;;;;;;19.82;8.75;;;;;;;0.70;55.73;102010.95;1719751;83;20934;-55
2022/03/15 05:20:12;;;;;;;16.00;9.20;;;;;;;0.72;55.72;102006.19;1699571;82;22260;-54
2022/03/15 05:22:39;;;;;;;16.73;9.83;;;;;;;0.73;55.74;102009.63;1731781;81;21046;-54
2022/03/15 05:25:07;;;;;;;17.55;8.93;;;;;;;0.74;55.68;102001.84;1721664;81;21014;-54
2022/03/15 05:27:34;;;;;;;16.55;9.38;;;;;;;0.79;55.71;102012.16;1724073;81;21134;-55
2022/03/15 05:30:04;;;;;;;14.35;9.45;;;;;;;0.85;55.62;102004.27;1711038;83;21057;-55
2022/03/15 05:32:32;;;;;;;14.63;8.78;;;;;;;0.95;55.51;102002.42;1711077;83;21035;-55
2022/03/15 05:34:59;;;;;;;13.70;8.33;;;;;;;1.03;55.31;102007.06;1708858;83;21045;-55
2022/03/15 05:37:26;;;;;;;14.50;8.10;;;;;;;1.08;55.17;102004.41;1713747;82;21098;-55
2022/03/15 05:39:52;;;;;;;13.18;8.85;;;;;;;1.09;55.16;101999.63;1714380;82;21153;-54
2022/03/15 05:42:19;;;;;;;13.62;7.75;;;;;;;1.17;55.03;102005.55;1714273;83;21665;-54
2022/03/15 05:44:47;;;;;;;18.32;9.78;;;;;;;1.22;54.84;102002.45;1711114;82;21074;-55
2022/03/15 05:47:14;;;;;;;15.53;9.08;;;;;;;1.27;54.73;101996.75;1714419;83;21078;-55
2022/03/15 05:49:41;;;;;;;16.67;9.05;;;;;;;1.34;54.70;102003.15;1711329;82;21110;-55
2022/03/15 05:52:08;;;;;;;18.02;8.53;;;;;;;1.39;54.56;101998.75;1709399;83;21142;-55
2022/03/15 05:54:36;;;;;;;20.15;9.80;;;;;;;1.48;54.46;102005.95;1711401;82;21061;-54
2022/03/15 05:57:03;;;;;;;17.30;10.58;;;;;;;1.57;54.37;102004.94;1702133;82;21114;-55
2022/03/15 05:59:30;;;;;;;19.45;10.40;;;;;;;1.67;54.05;102003.05;1717049;82;21500;-55
2022/03/15 06:01:57;;;;;;;17.67;10.38;;;;;;;1.78;53.62;102006.75;1719326;82;21179;-54
2022/03/15 06:04:26;;;;;;;19.15;11.20;;;;;;;1.88;53.63;102013.94;1717650;83;21196;-55
2022/03/15 06:06:57;;;;;;;18.85;11.45;;;;;;;1.98;53.20;102005.09;1696169;82;21082;-54
2022/03/15 06:09:25;;;;;;;20.43;9.73;;;;;;;2.04;53.04;102000.64;1691282;83;21059;-55
2022/03/15 06:11:54;;;;;;;18.25;10.95;;;;;;;2.15;52.91;102004.78;1706202;82;21095;-54
2022/03/15 06:14:21;;;;;;;17.80;9.83;;;;;;;2.21;52.79;102002.92;1706428;83;21039;-54
2022/03/15 06:16:48;;;;;;;18.52;10.98;;;;;;;2.32;52.65;102003.16;1699342;82;21798;-54
2022/03/15 06:19:17;;;;;;;23.52;11.00;;;;;;;2.37;52.48;102000.02;1696845;82;21539;-53
2022/03/15 06:21:45;;;;;;;19.80;11.90;;;;;;;2.43;52.40;101999.91;1701034;82;21569;-54
2022/03/15 06:24:12;;;;;;;19.45;12.07;;;;;;;2.50;51.97;102006.69;1699694;83;21090;-54
2022/03/15 06:26:39;;;;;;;18.80;11.78;;;;;;;2.60;51.86;102001.70;1700282;82;21055;-54
2022/03/15 06:29:06;;;;;;;21.48;12.28;;;;;;;2.67;51.77;102001.14;1703029;83;21159;-54
2022/03/15 06:31:33;;;;;;;18.73;12.15;;;;;;;2.75;51.54;102001.83;1702223;84;21073;-53
2022/03/15 06:34:00;;;;;;;19.95;12.45;;;;;;;2.82;51.52;102000.41;1701046;83;21603;-54
2022/03/15 06:36:27;;;;;;;22.77;12.53;;;;;;;2.89;51.37;101991.58;1700339;82;21052;-53
2022/03/15 06:38:54;;;;;;;18.57;11.53;;;;;;;2.95;50.88;101990.16;1704040;83;21156;-54
2022/03/15 06:41:21;;;;;;;20.52;12.45;;;;;;;3.03;50.99;101990.84;1699271;83;21161;-54
2022/03/15 06:43:48;;;;;;;24.30;12.00;;;;;;;3.10;50.96;101988.95;1706274;82;21109;-54
2022/03/15 06:46:14;;;;;;;21.82;12.60;;;;;;;3.21;50.86;101992.59;1712461;82;21023;-54
2022/03/15 06:48:41;;;;;;;17.92;11.68;;;;;;;3.29;50.54;101986.77;1709286;82;21138;-54
2022/03/15 06:51:08;;;;;;;17.05;11.05;;;;;;;3.38;50.27;101982.66;1705293;82;21020;-54
2022/03/15 06:53:34;;;;;;;25.68;12.58;;;;;;;3.45;50.24;101980.30;1709046;84;21154;-54
2022/03/15 06:56:01;;;;;;;18.37;12.13;;;;;;;3.54;49.93;101983.12;1695327;83;21063;-55
2022/03/15 06:58:29;;;;;;;19.90;11.97;;;;;;;3.64;49.73;101979.84;1697130;82;21004;-54
2022/03/15 07:00:56;;;;;;;20.00;12.18;;;;;;;3.68;49.43;101972.34;1697660;83;21161;-54
2022/03/15 07:03:23;;;;;;;21.20;12.15;;;;;;;3.76;49.57;101980.82;1702173;82;21062;-54
2022/03/15 07:05:49;;;;;;;17.27;10.70;;;;;;;3.83;49.61;101973.70;1703509;83;21540;-54
2022/03/15 07:08:16;;;;;;;18.75;11.93;;;;;;;3.93;49.07;101980.83;1700079;82;21119;-54
2022/03/15 07:10:43;;;;;;;17.90;11.03;;;;;;;4.00;48.91;101983.67;1701586;83;21063;-54
2022/03/15 07:13:10;;;;;;;19.00;11.48;;;;;;;4.05;48.81;101983.97;1699548;84;20997;-54
2022/03/15 07:15:37;;;;;;;18.52;11.93;;;;;;;4.12;48.82;101975.97;1699008;83;21107;-54
2022/03/15 07:18:04;;;;;;;21.30;12.15;;;;;;;4.20;48.79;101974.88;1699880;82;21207;-55
2022/03/15 07:20:31;;;;;;;21.30;12.07;;;;;;;4.29;48.35;101971.16;1691883;82;21075;-54
2022/03/15 07:23:18;;;;;;;16.52;11.75;;;;;;;4.38;48.42;101960.91;1705322;82;21102;-54
2022/03/15 07:25:46;;;;;;;18.90;11.97;;;;;;;4.48;47.95;101964.95;1705418;83;21137;-54
2022/03/15 07:28:14;;;;;;;22.48;12.10;;;;;;;4.55;47.77;101957.81;1744052;81;21043;-54
2022/03/15 07:30:43;;;;;;;18.15;11.00;;;;;;;4.61;47.46;101961.55;1744260;81;21095;-54
2022/03/15 07:33:13;;;;;;;17.52;11.03;;;;;;;4.68;47.36;101951.80;1748348;81;21068;-54
2022/03/15 07:35:42;;;;;;;22.58;11.78;;;;;;;4.74;47.12;101950.28;1725842;81;21082;-55
2022/03/15 07:38:16;;;;;;;19.70;11.90;;;;;;;4.80;47.20;101952.72;1743327;80;21123;-55
2022/03/15 07:40:46;;;;;;;20.25;11.38;;;;;;;4.87;46.83;101940.34;1745245;81;21060;-54
2022/03/15 07:43:16;;;;;;;20.15;12.00;;;;;;;4.95;46.63;101947.02;1743700;82;21107;-55
2022/03/15 07:45:43;;;;;;;18.52;11.63;;;;;;;5.02;46.49;101948.52;1702706;82;21013;-54
2022/03/15 07:48:12;;;;;;;18.05;11.83;;;;;;;5.09;46.38;101953.55;1747026;81;20992;-54
2022/03/15 07:50:42;;;;;;;21.57;12.82;;;;;;;5.15;46.30;101955.52;1725400;82;21650;-55
2022/03/15 07:53:11;;;;;;;23.60;14.38;;;;;;;5.24;46.14;101956.97;1747774;81;21075;-55
2022/03/15 07:55:40;;;;;;;20.50;13.45;;;;;;;5.30;45.56;101948.95;1743300;81;21154;-54
2022/03/15 07:58:11;;;;;;;24.37;13.25;;;;;;;5.38;45.63;101948.25;1699997;82;21020;-55
2022/03/15 08:00:39;;;;;;;25.55;14.60;;;;;;;5.45;45.38;101945.45;1743851;80;21031;-54
2022/03/15 08:03:13;;;;;;;22.62;13.62;;;;;;;5.52;45.13;101941.72;1749025;81;21067;-56
2022/03/15 08:05:44;;;;;;;22.10;13.75;;;;;;;5.58;45.08;101945.40;1745097;80;21005;-54
2022/03/15 08:08:11;;;;;;;22.50;15.63;;;;;;;5.63;44.98;101936.98;1743442;80;21119;-54
2022/03/15 08:10:43;;;;;;;27.10;15.75;;;;;;;5.73;44.82;101941.41;1743823;80;21113;-54
2022/03/15 08:13:13;;;;;;;23.32;14.15;;;;;;;5.79;44.27;101943.82;1731635;81;21019;-53
2022/03/15 08:15:43;;;;;;;24.00;13.72;;;;;;;5.86;44.31;101940.54;1735517;81;21020;-55
2022/03/15 08:18:15;;;;;;;26.82;14.40;;;;;;;5.95;43.96;101942.37;1739759;80;21051;-55
2022/03/15 08:20:45;;;;;;;25.48;15.38;;;;;;;6.05;44.26;101941.63;1723160;80;21233;-55
2022/03/15 08:23:13;;;;;;;23.65;14.65;;;;;;;6.10;43.85;101938.83;1735009;81;21686;-55
2022/03/15 08:25:44;;;;;;;21.70;14.43;;;;;;;6.16;44.08;101930.78;1736773;81;21004;-55
2022/03/15 08:28:15;;;;;;;23.27;15.93;;;;;;;6.24;44.06;101925.28;1741299;80;21047;-55
2022/03/15 08:30:44;;;;;;;29.50;14.87;;;;;;;6.31;43.61;101927.59;1732466;81;21027;-55
2022/03/15 08:33:14;;;;;;;22.70;14.75;;;;;;;6.41;42.93;101927.26;1743393;80;21043;-55
2022/03/15 08:35:42;;;;;;;21.12;13.78;;;;;;;6.50;43.44;101929.50;1749767;81;21102;-55
2022/03/15 08:38:12;;;;;;;27.13;16.12;;;;;;;6.57;42.92;101928.81;1732831;81;21079;-56
2022/03/15 08:40:40;;;;;;;25.45;14.78;;;;;;;6.63;43.02;101930.73;1726864;81;21055;-55
2022/03/15 08:43:09;;;;;;;25.95;16.87;;;;;;;6.66;42.70;101933.24;1747885;80;21041;-55
2022/03/15 08:45:41;;;;;;;30.37;17.52;;;;;;;6.69;42.87;101933.56;1729845;81;21109;-59
2022/03/15 08:48:10;;;;;;;30.37;16.82;;;;;;;6.76;42.63;101933.74;1741016;81;21016;-56
2022/03/15 08:50:43;;;;;;;25.50;15.85;;;;;;;6.85;42.27;101924.20;1746179;80;21023;-55
2022/03/15 08:53:11;;;;;;;25.10;16.55;;;;;;;6.94;42.12;101925.59;1732563;80;21149;-55
2022/03/15 08:55:39;;;;;;;23.30;16.60;;;;;;;7.03;42.15;101929.17;1736780;81;21039;-56
2022/03/15 08:58:10;;;;;;;26.35;15.75;;;;;;;7.10;41.99;101928.47;1732185;81;21156;-55
2022/03/15 09:00:39;;;;;;;24.65;15.03;;;;;;;7.17;41.88;101922.05;1740335;81;21051;-55
2022/03/15 09:03:08;;;;;;;31.95;17.02;;;;;;;7.24;41.78;101926.11;1728206;81;21043;-55
2022/03/15 09:05:37;;;;;;;25.75;15.83;;;;;;;7.32;41.18;101922.34;1745413;80;21201;-55
2022/03/15 09:08:06;;;;;;;24.10;15.48;;;;;;;7.39;41.43;101919.86;1721610;82;21104;-56
2022/03/15 09:10:45;;;;;;;27.10;15.60;;;;;;;7.45;41.25;101920.92;1743001;80;21129;-57
2022/03/15 09:13:14;;;;;;;23.65;15.20;;;;;;;7.50;40.99;101924.19;1744949;81;21041;-57
2022/03/15 09:15:42;;;;;;;27.15;16.35;;;;;;;7.57;40.45;101926.09;1744087;81;21102;-55
2022/03/15 09:18:10;;;;;;;29.00;15.72;;;;;;;7.63;40.28;101926.69;1747545;80;21092;-55
2022/03/15 09:20:39;;;;;;;27.67;15.55;;;;;;;7.69;40.15;101928.64;1740225;81;21806;-56
2022/03/15 09:23:09;;;;;;;26.10;15.53;;;;;;;7.73;39.61;101919.72;1747616;80;21145;-56
2022/03/15 09:25:37;;;;;;;25.43;14.30;;;;;;;7.80;39.37;101930.31;1725757;81;21082;-57
2022/03/15 09:28:07;;;;;;;23.05;15.63;;;;;;;7.86;38.86;101927.91;1749787;81;21011;-56
2022/03/15 09:30:36;;;;;;;23.73;14.58;;;;;;;7.89;38.78;101919.91;1723237;81;21055;-56
2022/03/15 09:33:04;;;;;;;26.05;14.43;;;;;;;7.94;38.28;101921.41;1750154;80;21039;-56
2022/03/15 09:35:33;;;;;;;25.57;14.63;;;;;;;8.02;38.24;101918.45;1753180;80;21130;-56
2022/03/15 09:38:01;;;;;;;18.52;11.73;;;;;;;8.09;38.00;101912.47;1743286;81;21061;-56
2022/03/15 09:40:29;;;;;;;18.95;11.53;;;;;;;8.19;37.19;101915.06;1682902;82;21153;-56
2022/03/15 09:43:03;;;;;;;21.20;12.15;;;;;;;8.24;36.91;101905.66;1737542;80;21058;-56
2022/03/15 09:45:35;;;;;;;19.93;12.40;;;;;;;8.30;37.09;101910.63;1747607;80;21665;-55
2022/03/15 09:48:14;;;;;;;20.57;11.75;;;;;;;8.34;36.63;101914.83;1741622;82;21252;-55
2022/03/15 09:50:42;;;;;;;20.52;11.38;;;;;;;8.36;36.57;101911.20;1751381;80;21042;-55
2022/03/15 09:53:10;;;;;;;19.73;11.80;;;;;;;8.43;36.93;101908.33;1750529;81;21013;-55
2022/03/15 09:55:38;;;;;;;20.10;10.55;;;;;;;8.48;35.97;101912.43;1744767;80;21110;-55
2022/03/15 09:58:08;;;;;;;16.75;10.82;;;;;;;8.55;36.55;101911.21;1730023;81;21000;-56
2022/03/15 10:00:37;;;;;;;14.83;8.60;;;;;;;8.63;36.17;101902.99;1728359;81;21261;-56
2022/03/15 10:03:06;;;;;;;14.30;8.33;;;;;;;8.73;35.80;101906.03;1754224;80;20995;-56
2022/03/15 10:05:33;;;;;;;17.10;7.83;;;;;;;8.79;34.95;101904.87;1747085;81;21094;-55
2022/03/15 10:08:03;;;;;;;15.80;8.40;;;;;;;8.86;34.53;101904.95;1748569;81;21086;-55
2022/03/15 10:10:31;;;;;;;13.50;5.78;;;;;;;8.91;34.60;101898.58;1759272;81;21046;-55
2022/03/15 10:13:00;;;;;;;9.50;5.83;;;;;;;8.96;34.74;101902.30;1705715;81;21207;-54
2022/03/15 10:15:27;;;;;;;8.38;5.12;;;;;;;9.01;34.09;101898.98;1716779;83;21617;-55
2022/03/15 10:17:57;;;;;;;10.23;6.03;;;;;;;9.05;34.00;101899.67;1710685;82;21098;-55
2022/03/15 10:20:31;;;;;;;10.10;5.62;;;;;;;9.05;33.15;101897.05;1687961;83;21066;-55
2022/03/15 10:23:00;;;;;;;9.73;4.92;;;;;;;9.07;33.62;101890.78;1709288;83;21043;-55
2022/03/15 10:25:29;;;;;;;11.73;6.05;;;;;;;9.10;33.48;101891.11;1688340;83;21131;-56
2022/03/15 10:28:02;;;;;;;13.75;5.62;;;;;;;9.14;33.73;101893.95;1689552;83;21496;-55
2022/03/15 10:30:30;;;;;;;9.90;5.05;;;;;;;9.20;34.28;101892.34;1694592;83;21039;-55
2022/03/15 10:32:57;;;;;;;8.00;4.75;;;;;;;9.20;33.43;101892.82;1698437;84;21747;-55
2022/03/15 10:35:31;;;;;;;8.45;4.60;;;;;;;9.25;33.93;101889.02;1698299;84;21047;-55
2022/03/15 10:37:59;;;;;;;8.78;4.95;;;;;;;9.32;34.04;101892.19;1697995;84;21288;-54
2022/03/15 10:40:47;;;;;;;10.00;4.10;;;;;;;9.39;33.76;101883.53;1720025;82;21094;-54
2022/03/15 10:43:18;;;;;;;9.25;5.05;;;;;;;9.44;33.53;101890.23;1696567;84;21052;-56
2022/03/15 10:45:55;;;;;;;9.48;4.67;;;;;;;9.45;33.10;101881.44;1699421;84;21864;-56
2022/03/15 10:48:26;;;;;;;8.65;4.00;;;;;;;9.49;33.34;101879.50;1699937;84;21110;-54
2022/03/15 10:51:02;;;;;;;11.70;4.55;;;;;;;9.51;32.31;101878.11;1700825;84;21791;-54
2022/03/15 10:53:46;;;;;;;9.48;4.30;;;;;;;9.56;32.83;101867.73;1697164;84;21150;-54
2022/03/15 10:56:23;;;;;;;11.83;4.40;;;;;;;9.60;33.27;101875.86;1690858;82;21142;-54
2022/03/15 10:59:02;;;;;;;8.85;4.08;;;;;;;9.70;32.55;101876.68;1698741;84;21087;-54
2022/03/15 11:01:39;;;;;;;7.75;3.95;;;;;;;9.77;32.45;101874.98;1712154;82;21050;-54
2022/03/15 11:04:09;;;;;;;8.58;4.15;;;;;;;9.82;32.40;101874.27;1662180;84;21854;-54
2022/03/15 11:06:40;;;;;;;6.50;3.45;;;;;;;9.90;32.08;101876.94;1700308;84;21103;-55
2022/03/15 11:09:25;;;;;;;7.40;3.10;;;;;;;9.93;31.07;101868.89;1700596;84;21052;-55
2022/03/15 11:12:01;;;;;;;8.30;3.00;;;;;;;9.94;31.44;101873.23;1689003;83;21061;-55
2022/03/15 11:14:47;;;;;;;8.50;3.70;;;;;;;9.96;31.34;101860.84;1693866;84;21062;-55
2022/03/15 11:17:25;;;;;;;7.22;3.40;;;;;;;9.96;31.24;101860.37;1687484;83;21185;-55
2022/03/15 11:20:00;;;;;;;8.25;3.17;;;;;;;9.97;31.89;101860.77;1696073;83;21058;-55
2022/03/15 11:22:31;;;;;;;6.20;2.98;;;;;;;9.98;31.64;101860.30;1704928;82;21055;-55
2022/03/15 11:25:14;;;;;;;7.50;2.52;;;;;;;10.05;31.80;101853.76;1699013;83;21079;-54
2022/03/15 11:27:43;;;;;;;6.78;3.55;;;;;;;10.08;31.22;101852.76;1706204;84;21047;-54
2022/03/15 11:30:18;;;;;;;6.37;3.40;;;;;;;10.15;31.81;101848.38;1703065;83;22177;-54
2022/03/15 11:32:46;;;;;;;6.80;3.00;;;;;;;10.19;31.31;101845.14;1687210;83;21079;-54